UDYZ/EVN METAR and TAF weather

Enter ICAO airport designator
Station Type Date Time Source
UDYZ METAR 2020/12/05 23:30 UTC NOAA

UDYZ 052330Z 03004KT 9999 OVC046 04/M02 Q1022 R09/010070 NOSIG


Station Type Date Time Source
UDYZ Decoded METAR 2020/12/05 23:30 UTC NOAA

Station name not available
Dec 05, 2020 - 06:30 PM EST / 2020.12.05 2330 UTC
Wind: from the NNE (030 degrees) at 5 MPH (4 KT):0
Visibility: greater than 7 mile(s):0
Sky conditions: overcast
Temperature: 39 F (4 C)
Dew Point: 28 F (-2 C)
Relative Humidity: 64%
Pressure (altimeter): 30.18 in. Hg (1022 hPa)
ob: UDYZ 052330Z 03004KT 9999 OVC046 04/M02 Q1022 R09/010070 NOSIG
cycle: 23

Station Type Date Time Source
UDYZ TAF 2020/12/05 18:00 UTC NOAA

TAF UDYZ 051704Z 0518/0618 04006KT 6000 BKN030
TEMPO 0520/0606 2300 BR

Example: see airport list